Time,TemperatureF,DewpointF,PressureIn,WindDirection,WindDirectionDegrees,WindSpeedMPH,WindSpeedGustMPH,Humidity,HourlyPrecipIn,Conditions,Clouds,dailyrainin,SoftwareType,DateUTC
2013-03-18 00:00:00,34.1,10.5,30.31,NE,50,13.8,13.8,37,0.00,OVC,,0.00,WeatherDisplay:10.37,2013-03-18 04:00:00,
2013-03-18 00:05:00,33.9,11.5,30.31,NE,48,8.1,8.1,39,0.00,OVC,,0.00,WeatherDisplay:10.37,2013-03-18 04:05:00,
2013-03-18 00:10:00,33.8,11.4,30.31,ENE,59,11.5,11.5,39,0.00,OVC,,0.00,WeatherDisplay:10.37,2013-03-18 04:10:00,
2013-03-18 00:15:00,33.6,10.7,30.31,ENE,58,15.0,15.0,38,0.00,OVC,,0.00,WeatherDisplay:10.37,2013-03-18 04:15:00,
2013-03-18 00:20:00,33.3,10.4,30.31,NE,51,10.4,10.4,38,0.00,OVC,,0.00,WeatherDisplay:10.37,2013-03-18 04:20:00,
2013-03-18 00:25:00,33.1,10.8,30.32,NNE,16,11.5,11.5,39,0.00,OVC,,0.00,WeatherDisplay:10.37,2013-03-18 04:25:00,
2013-03-18 00:30:00,33.0,10.1,30.32,NE,44,10.4,10.4,38,0.00,OVC,,0.00,WeatherDisplay:10.37,2013-03-18 04:30:00,
2013-03-18 00:35:00,32.8,10.5,30.32,NE,44,6.9,6.9,39,0.00,OVC,,0.00,WeatherDisplay:10.37,2013-03-18 04:35:00,
2013-03-18 00:40:00,32.6,9.8,30.32,ENE,68,10.4,10.4,38,0.00,OVC,,0.00,WeatherDisplay:10.37,2013-03-18 04:40:00,
2013-03-18 00:45:00,32.5,10.3,30.32,ENE,61,12.7,12.7,39,0.00,OVC,,0.00,WeatherDisplay:10.37,2013-03-18 04:45:00,
2013-03-18 00:50:00,32.3,10.1,30.32,ENE,70,10.4,10.4,39,0.00,OVC,,0.00,WeatherDisplay:10.37,2013-03-18 04:50:00,
2013-03-18 00:55:00,32.3,10.6,30.33,NE,51,10.4,10.4,40,0.00,OVC,,0.00,WeatherDisplay:10.37,2013-03-18 04:55:00,
2013-03-18 01:00:00,32.2,10.5,30.32,NE,53,12.0,12.0,40,0.00,OVC,,0.00,WeatherDisplay:10.37,2013-03-18 05:00:00,
2013-03-18 01:05:00,32.1,10.5,30.33,NNE,30,11.5,11.5,40,0.00,FEW,,0.00,WeatherDisplay:10.37,2013-03-18 05:05:00,
2013-03-18 01:10:00,32.1,11.0,30.33,NNE,25,9.2,9.2,41,0.00,FEW,,0.00,WeatherDisplay:10.37,2013-03-18 05:10:00,
2013-03-18 01:15:00,32.0,10.9,30.32,NE,36,9.2,9.2,41,0.00,FEW,,0.00,WeatherDisplay:10.37,2013-03-18 05:15:00,
2013-03-18 01:20:00,32.0,10.4,30.33,NE,44,11.5,11.5,40,0.00,FEW,,0.00,WeatherDisplay:10.37,2013-03-18 05:20:00,
2013-03-18 01:25:00,31.8,10.2,30.32,NE,46,13.8,13.8,40,0.00,FEW,,0.00,WeatherDisplay:10.37,2013-03-18 05:25:00,
2013-03-18 01:30:00,31.6,10.0,30.32,NE,48,11.5,11.5,40,0.00,FEW,,0.00,WeatherDisplay:10.37,2013-03-18 05:30:00,
2013-03-18 01:35:00,31.6,10.6,30.33,NNE,20,11.5,11.5,41,0.00,FEW,,0.00,WeatherDisplay:10.37,2013-03-18 05:35:00,
2013-03-18 01:41:00,31.5,9.9,30.32,NNE,32,11.5,11.5,40,0.00,FEW,,0.00,WeatherDisplay:10.37,2013-03-18 05:41:00,
2013-03-18 01:46:00,31.3,10.3,30.33,NE,46,12.7,12.7,41,0.00,FEW,,0.00,WeatherDisplay:10.37,2013-03-18 05:46:00,
2013-03-18 01:51:00,31.3,10.3,30.32,NE,53,11.5,11.5,41,0.00,FEW,,0.00,WeatherDisplay:10.37,2013-03-18 05:51:00,
2013-03-18 01:56:00,31.2,10.7,30.32,NE,36,8.1,8.1,42,0.00,FEW,,0.00,WeatherDisplay:10.37,2013-03-18 05:56:00,
2013-03-18 02:01:00,31.2,11.3,30.32,ENE,65,8.1,8.1,43,0.00,SCT,,0.00,WeatherDisplay:10.37,2013-03-18 06:01:00,
2013-03-18 02:07:00,31.1,11.2,30.32,NNW,338,10.4,10.4,43,0.00,SCT,,0.00,WeatherDisplay:10.37,2013-03-18 06:07:00,
2013-03-18 02:12:00,31.2,11.3,30.33,ENE,75,8.1,8.1,43,0.00,SCT,,0.00,WeatherDisplay:10.37,2013-03-18 06:12:00,
2013-03-18 02:17:00,31.1,11.7,30.33,NNE,12,12.7,12.7,44,0.00,SCT,,0.00,WeatherDisplay:10.37,2013-03-18 06:17:00,
2013-03-18 02:22:00,31.1,12.2,30.33,NNE,26,8.1,8.1,45,0.00,SCT,,0.00,WeatherDisplay:10.37,2013-03-18 06:22:00,
2013-03-18 02:27:00,30.9,11.0,30.33,NE,51,15.0,15.0,43,0.00,SCT,,0.00,WeatherDisplay:10.37,2013-03-18 06:27:00,
2013-03-18 02:32:00,30.8,10.9,30.33,NE,40,11.5,11.5,43,0.00,SCT,,0.00,WeatherDisplay:10.37,2013-03-18 06:32:00,
2013-03-18 02:37:00,30.7,10.3,30.34,NE,56,15.0,15.0,42,0.00,SCT,,0.00,WeatherDisplay:10.37,2013-03-18 06:37:00,
2013-03-18 02:42:00,30.5,10.1,30.34,NE,34,12.7,12.7,42,0.00,SCT,,0.00,WeatherDisplay:10.37,2013-03-18 06:42:00,
2013-03-18 02:47:00,30.4,10.0,30.34,ENE,70,17.3,17.3,42,0.00,SCT,,0.00,WeatherDisplay:10.37,2013-03-18 06:47:00,
2013-03-18 02:52:00,30.3,9.9,30.34,NNE,12,14.0,14.0,42,0.00,SCT,,0.00,WeatherDisplay:10.37,2013-03-18 06:52:00,
2013-03-18 02:57:00,30.1,10.3,30.35,NE,56,15.0,15.0,43,0.00,SCT,,0.00,WeatherDisplay:10.37,2013-03-18 06:57:00,
2013-03-18 03:02:00,30.0,10.2,30.34,NE,51,14.0,14.0,43,0.00,SCT,,0.00,WeatherDisplay:10.37,2013-03-18 07:02:00,
2013-03-18 03:07:00,29.8,9.5,30.35,NE,37,11.5,11.5,42,0.00,SCT,,0.00,WeatherDisplay:10.37,2013-03-18 07:07:00,
2013-03-18 03:12:00,29.7,9.4,30.35,ENE,63,8.1,8.1,42,0.00,SCT,,0.00,WeatherDisplay:10.37,2013-03-18 07:12:00,
2013-03-18 03:17:00,29.6,8.7,30.35,NNE,16,15.0,15.0,41,0.00,SCT,,0.00,WeatherDisplay:10.37,2013-03-18 07:17:00,
2013-03-18 03:22:00,29.4,8.6,30.35,NE,43,12.7,12.7,41,0.00,SCT,,0.00,WeatherDisplay:10.37,2013-03-18 07:22:00,
2013-03-18 03:27:00,29.4,9.1,30.35,NNE,15,9.2,9.2,42,0.00,SCT,,0.00,WeatherDisplay:10.37,2013-03-18 07:27:00,
2013-03-18 03:32:00,29.3,9.0,30.36,ENE,60,10.4,10.4,42,0.00,SCT,,0.00,WeatherDisplay:10.37,2013-03-18 07:32:00,
2013-03-18 03:37:00,29.2,8.4,30.36,ENE,58,16.1,16.1,41,0.00,SCT,,0.00,WeatherDisplay:10.37,2013-03-18 07:37:00,
2013-03-18 03:43:00,29.1,8.8,30.36,NNE,28,8.1,8.1,42,0.00,SCT,,0.00,WeatherDisplay:10.37,2013-03-18 07:43:00,
2013-03-18 03:48:00,29.0,8.7,30.37,NE,46,10.4,10.4,42,0.00,SCT,,0.00,WeatherDisplay:10.37,2013-03-18 07:48:00,
2013-03-18 03:53:00,29.0,8.7,30.37,NE,46,12.7,12.7,42,0.00,SCT,,0.00,WeatherDisplay:10.37,2013-03-18 07:53:00,
2013-03-18 03:58:00,28.7,7.9,30.37,NE,49,13.8,13.8,41,0.00,SCT,,0.00,WeatherDisplay:10.37,2013-03-18 07:58:00,
2013-03-18 04:03:00,28.7,8.5,30.37,NE,55,11.5,11.5,42,0.00,SCT,,0.00,WeatherDisplay:10.37,2013-03-18 08:03:00,
2013-03-18 04:08:00,28.6,8.4,30.36,NNE,23,11.5,11.5,42,0.00,SCT,,0.00,WeatherDisplay:10.37,2013-03-18 08:08:00,
2013-03-18 04:13:00,28.7,9.0,30.37,ENE,59,13.0,13.0,43,0.00,SCT,,0.00,WeatherDisplay:10.37,2013-03-18 08:13:00,
2013-03-18 04:18:00,28.6,8.9,30.37,NE,41,9.2,9.2,43,0.00,SCT,,0.00,WeatherDisplay:10.37,2013-03-18 08:18:00,
2013-03-18 04:23:00,28.6,8.9,30.37,ENE,71,5.0,5.0,43,0.00,SCT,,0.00,WeatherDisplay:10.37,2013-03-18 08:23:00,
2013-03-18 04:28:00,28.6,8.4,30.37,ENE,68,11.5,11.5,42,0.00,SCT,,0.00,WeatherDisplay:10.37,2013-03-18 08:28:00,
2013-03-18 04:33:00,28.4,8.2,30.37,NE,51,9.2,9.2,42,0.00,SCT,,0.00,WeatherDisplay:10.37,2013-03-18 08:33:00,
2013-03-18 04:38:00,28.4,8.7,30.37,NE,49,9.2,9.2,43,0.00,SCT,,0.00,WeatherDisplay:10.37,2013-03-18 08:38:00,
2013-03-18 04:43:00,28.4,8.7,30.37,NE,46,11.5,11.5,43,0.00,SCT,,0.00,WeatherDisplay:10.37,2013-03-18 08:43:00,
2013-03-18 04:48:00,28.3,8.6,30.37,ENE,65,10.0,10.0,43,0.00,SCT,,0.00,WeatherDisplay:10.37,2013-03-18 08:48:00,
2013-03-18 04:53:00,28.2,8.5,30.37,NE,55,11.5,11.5,43,0.00,SCT,,0.00,WeatherDisplay:10.37,2013-03-18 08:53:00,
2013-03-18 04:58:00,28.2,9.0,30.37,NNE,20,8.1,8.1,44,0.00,SCT,,0.00,WeatherDisplay:10.37,2013-03-18 08:58:00,
2013-03-18 05:03:00,28.1,9.0,30.38,NE,52,6.0,6.0,44,0.00,FEW,,0.00,WeatherDisplay:10.37,2013-03-18 09:03:00,
2013-03-18 05:08:00,28.1,9.0,30.38,NE,34,10.4,10.4,44,0.00,FEW,,0.00,WeatherDisplay:10.37,2013-03-18 09:08:00,
2013-03-18 05:13:00,28.1,9.5,30.38,NE,48,6.9,6.9,45,0.00,FEW,,0.00,WeatherDisplay:10.37,2013-03-18 09:13:00,
2013-03-18 05:18:00,28.1,9.5,30.39,NNE,32,10.4,10.4,45,0.00,FEW,,0.00,WeatherDisplay:10.37,2013-03-18 09:18:00,
2013-03-18 05:24:00,28.0,9.9,30.39,NE,46,11.5,11.5,46,0.00,FEW,,0.00,WeatherDisplay:10.37,2013-03-18 09:24:00,
2013-03-18 05:29:00,28.0,9.9,30.39,NE,34,11.5,11.5,46,0.00,FEW,,0.00,WeatherDisplay:10.37,2013-03-18 09:29:00,
2013-03-18 05:34:00,28.0,10.3,30.39,ENE,71,8.1,8.1,47,0.00,FEW,,0.00,WeatherDisplay:10.37,2013-03-18 09:34:00,
2013-03-18 05:39:00,28.0,10.3,30.39,NE,34,8.1,8.1,47,0.00,FEW,,0.00,WeatherDisplay:10.37,2013-03-18 09:39:00,
2013-03-18 05:44:00,27.9,10.2,30.39,ENE,63,10.4,10.4,47,0.00,FEW,,0.00,WeatherDisplay:10.37,2013-03-18 09:44:00,
2013-03-18 05:49:00,27.9,10.7,30.39,ENE,58,9.0,9.0,48,0.00,FEW,,0.00,WeatherDisplay:10.37,2013-03-18 09:49:00,
2013-03-18 05:55:00,27.9,10.7,30.39,NE,47,7.0,10.0,48,0.00,FEW,,0.00,WeatherDisplay:10.37,2013-03-18 09:55:00,
2013-03-18 06:00:00,28.1,11.8,30.39,ENE,68,9.2,9.2,50,0.00,FEW,,0.00,WeatherDisplay:10.37,2013-03-18 10:00:00,
2013-03-18 06:05:00,28.2,11.9,30.39,ENE,58,8.0,15.0,50,0.00,BKN,,0.00,WeatherDisplay:10.37,2013-03-18 10:05:00,
2013-03-18 06:10:00,28.3,12.0,30.39,ENE,68,11.5,11.5,50,0.00,BKN,,0.00,WeatherDisplay:10.37,2013-03-18 10:10:00,
2013-03-18 06:15:00,28.4,12.1,30.39,NE,56,8.0,18.0,50,0.00,BKN,,0.00,WeatherDisplay:10.37,2013-03-18 10:15:00,
2013-03-18 06:20:00,28.4,12.1,30.40,NE,55,9.0,17.0,50,0.00,BKN,,0.00,WeatherDisplay:10.37,2013-03-18 10:20:00,
2013-03-18 06:25:00,28.3,12.0,30.40,ENE,65,7.0,17.0,50,0.00,BKN,,0.00,WeatherDisplay:10.37,2013-03-18 10:25:00,
2013-03-18 06:30:00,28.4,12.5,30.40,ENE,64,12.0,16.0,51,0.00,BKN,,0.00,WeatherDisplay:10.37,2013-03-18 10:30:00,
2013-03-18 06:35:00,28.3,12.5,30.40,ENE,57,12.0,16.0,51,0.00,BKN,,0.00,WeatherDisplay:10.37,2013-03-18 10:35:00,
2013-03-18 06:40:00,28.3,12.9,30.41,ENE,57,12.0,18.0,52,0.00,BKN,,0.00,WeatherDisplay:10.37,2013-03-18 10:40:00,
2013-03-18 06:44:00,28.3,13.3,30.40,NNE,28,9.2,9.2,53,0.00,BKN,,0.00,WeatherDisplay:10.37,2013-03-18 10:44:00,
2013-03-18 06:49:00,28.4,13.4,30.40,ENE,73,12.7,12.7,53,0.00,BKN,,0.00,WeatherDisplay:10.37,2013-03-18 10:49:00,
2013-03-18 06:55:00,28.3,13.8,30.40,ENE,70,13.8,13.8,54,0.00,BKN,,0.00,WeatherDisplay:10.37,2013-03-18 10:55:00,
2013-03-18 07:00:00,28.5,13.9,30.40,East,84,11.5,11.5,54,0.00,BKN,,0.00,WeatherDisplay:10.37,2013-03-18 11:00:00,
2013-03-18 07:05:00,28.5,13.9,30.40,ENE,61,14.0,14.0,54,0.00,BKN,,0.00,WeatherDisplay:10.37,2013-03-18 11:05:00,
2013-03-18 07:10:00,28.5,13.9,30.40,ENE,71,9.0,15.0,54,0.00,BKN,,0.00,WeatherDisplay:10.37,2013-03-18 11:10:00,
2013-03-18 07:15:00,28.4,13.9,30.40,ENE,70,13.0,18.0,54,0.00,BKN,,0.00,WeatherDisplay:10.37,2013-03-18 11:15:00,
2013-03-18 07:20:00,28.4,13.9,30.40,ENE,68,9.0,14.0,54,0.00,BKN,,0.00,WeatherDisplay:10.37,2013-03-18 11:20:00,
2013-03-18 07:25:00,28.4,14.3,30.40,ENE,72,8.0,14.0,55,0.00,BKN,,0.00,WeatherDisplay:10.37,2013-03-18 11:25:00,
2013-03-18 07:30:00,28.6,14.5,30.41,East,98,11.5,11.5,55,0.00,BKN,,0.00,WeatherDisplay:10.37,2013-03-18 11:30:00,
2013-03-18 07:35:00,28.5,14.4,30.41,ENE,58,15.0,15.0,55,0.00,BKN,,0.00,WeatherDisplay:10.37,2013-03-18 11:35:00,
2013-03-18 07:40:00,28.4,14.3,30.41,East,82,14.0,14.0,55,0.00,BKN,,0.00,WeatherDisplay:10.37,2013-03-18 11:40:00,
2013-03-18 07:45:00,28.4,14.7,30.41,ENE,64,11.5,11.5,56,0.00,BKN,,0.00,WeatherDisplay:10.37,2013-03-18 11:45:00,
2013-03-18 07:50:00,28.5,14.8,30.41,ENE,61,13.8,13.8,56,0.00,BKN,,0.00,WeatherDisplay:10.37,2013-03-18 11:50:00,
2013-03-18 07:55:00,28.5,14.4,30.41,ENE,68,13.0,13.0,55,0.00,BKN,,0.00,WeatherDisplay:10.37,2013-03-18 11:55:00,
2013-03-18 08:00:00,28.6,14.9,30.41,East,94,11.0,11.0,56,0.00,BKN,,0.00,WeatherDisplay:10.37,2013-03-18 12:00:00,
2013-03-18 08:05:00,28.4,14.3,30.41,ENE,78,10.0,15.0,55,0.00,BKN,,0.00,WeatherDisplay:10.37,2013-03-18 12:05:00,
2013-03-18 08:10:00,28.5,14.8,30.41,ENE,68,11.5,11.5,56,0.00,BKN,,0.00,WeatherDisplay:10.37,2013-03-18 12:10:00,
2013-03-18 08:15:00,28.6,14.9,30.41,East,89,16.1,16.1,56,0.00,BKN,,0.00,WeatherDisplay:10.37,2013-03-18 12:15:00,
2013-03-18 08:20:00,28.7,14.6,30.40,East,79,11.5,11.5,55,0.00,BKN,,0.00,WeatherDisplay:10.37,2013-03-18 12:20:00,
2013-03-18 08:25:00,28.8,14.6,30.41,ESE,103,15.0,15.0,55,0.00,BKN,,0.00,WeatherDisplay:10.37,2013-03-18 12:25:00,
2013-03-18 08:30:00,29.0,14.8,30.41,ENE,70,11.5,11.5,55,0.00,BKN,,0.00,WeatherDisplay:10.37,2013-03-18 12:30:00,
2013-03-18 08:35:00,29.2,14.6,30.40,East,86,11.5,11.5,54,0.00,BKN,,0.00,WeatherDisplay:10.37,2013-03-18 12:35:00,
2013-03-18 08:40:00,29.1,14.1,30.41,ENE,70,9.2,9.2,53,0.00,BKN,,0.00,WeatherDisplay:10.37,2013-03-18 12:40:00,
2013-03-18 08:45:00,29.2,13.7,30.41,East,84,16.1,16.1,52,0.00,BKN,,0.00,WeatherDisplay:10.37,2013-03-18 12:45:00,
2013-03-18 08:50:00,29.5,14.5,30.40,East,87,15.0,15.0,53,0.00,BKN,,0.00,WeatherDisplay:10.37,2013-03-18 12:50:00,
2013-03-18 08:55:00,29.4,13.9,30.40,East,101,13.8,13.8,52,0.00,BKN,,0.00,WeatherDisplay:10.37,2013-03-18 12:55:00,
2013-03-18 09:00:00,29.8,13.9,30.41,ESE,115,15.0,15.0,51,0.00,BKN,,0.00,WeatherDisplay:10.37,2013-03-18 13:00:00,
2013-03-18 09:05:00,29.7,13.3,30.41,SSE,150,11.5,11.5,50,0.00,OVC,,0.00,WeatherDisplay:10.37,2013-03-18 13:05:00,
2013-03-18 09:10:00,29.8,13.4,30.40,East,88,12.7,12.7,50,0.00,OVC,,0.00,WeatherDisplay:10.37,2013-03-18 13:10:00,
2013-03-18 09:15:00,30.0,13.6,30.40,ENE,65,12.7,12.7,50,0.00,OVC,,0.00,WeatherDisplay:10.37,2013-03-18 13:15:00,
2013-03-18 09:20:00,29.9,13.0,30.40,East,89,12.7,12.7,49,0.00,OVC,,0.00,WeatherDisplay:10.37,2013-03-18 13:20:00,
2013-03-18 09:25:00,30.0,13.1,30.40,SE,132,13.8,13.8,49,0.00,OVC,,0.00,WeatherDisplay:10.37,2013-03-18 13:25:00,
2013-03-18 09:30:00,30.2,13.3,30.41,ENE,66,16.1,16.1,49,0.00,OVC,,0.00,WeatherDisplay:10.37,2013-03-18 13:30:00,
2013-03-18 09:35:00,30.2,13.3,30.41,East,96,12.0,12.0,49,0.00,OVC,,0.00,WeatherDisplay:10.37,2013-03-18 13:35:00,
2013-03-18 09:40:00,30.2,13.3,30.40,East,93,16.1,16.1,49,0.00,OVC,,0.00,WeatherDisplay:10.37,2013-03-18 13:40:00,
2013-03-18 09:46:00,30.5,13.6,30.41,East,98,18.4,18.4,49,0.00,OVC,,0.00,WeatherDisplay:10.37,2013-03-18 13:46:00,
2013-03-18 09:51:00,30.5,13.6,30.41,East,92,9.2,9.2,49,0.00,OVC,,0.00,WeatherDisplay:10.37,2013-03-18 13:51:00,
2013-03-18 09:56:00,30.8,13.9,30.41,NE,46,15.0,15.0,49,0.00,OVC,,0.00,WeatherDisplay:10.37,2013-03-18 13:56:00,
2013-03-18 10:02:00,31.2,14.2,30.41,ENE,68,15.0,15.0,49,0.00,OVC,,0.00,WeatherDisplay:10.37,2013-03-18 14:02:00,
2013-03-18 10:07:00,31.2,14.2,30.40,ENE,62,12.7,12.7,49,0.00,OVC,,0.00,WeatherDisplay:10.37,2013-03-18 14:07:00,
2013-03-18 10:12:00,31.0,14.5,30.40,East,85,10.4,10.4,50,0.00,OVC,,0.00,WeatherDisplay:10.37,2013-03-18 14:12:00,
2013-03-18 10:17:00,31.7,15.2,30.40,ENE,72,13.0,13.0,50,0.00,OVC,,0.00,WeatherDisplay:10.37,2013-03-18 14:17:00,
2013-03-18 10:22:00,31.6,15.1,30.40,East,96,13.8,13.8,50,0.00,OVC,,0.00,WeatherDisplay:10.37,2013-03-18 14:22:00,
2013-03-18 10:27:00,32.1,16.4,30.39,East,98,8.1,8.1,52,0.00,OVC,,0.00,WeatherDisplay:10.37,2013-03-18 14:27:00,
2013-03-18 10:33:00,31.8,15.7,30.40,East,101,13.8,13.8,51,0.00,OVC,,0.00,WeatherDisplay:10.37,2013-03-18 14:33:00,
2013-03-18 10:38:00,32.0,15.9,30.40,South,174,11.5,11.5,51,0.00,OVC,,0.00,WeatherDisplay:10.37,2013-03-18 14:38:00,
2013-03-18 10:43:00,32.2,16.5,30.40,East,79,11.5,11.5,52,0.00,OVC,,0.00,WeatherDisplay:10.37,2013-03-18 14:43:00,
2013-03-18 10:48:00,32.5,16.8,30.39,ESE,120,11.5,11.5,52,0.00,OVC,,0.00,WeatherDisplay:10.37,2013-03-18 14:48:00,
2013-03-18 10:53:00,32.7,17.0,30.39,East,84,11.5,11.5,52,0.00,OVC,,0.00,WeatherDisplay:10.37,2013-03-18 14:53:00,
2013-03-18 10:58:00,33.2,17.0,30.39,ENE,77,15.0,15.0,51,0.00,OVC,,0.00,WeatherDisplay:10.37,2013-03-18 14:58:00,
2013-03-18 11:03:00,33.0,16.8,30.38,East,101,15.0,15.0,51,0.00,OVC,,0.00,WeatherDisplay:10.37,2013-03-18 15:03:00,
2013-03-18 11:08:00,33.1,17.4,30.38,ESE,104,12.7,12.7,52,0.00,OVC,,0.00,WeatherDisplay:10.37,2013-03-18 15:08:00,
2013-03-18 11:13:00,33.4,17.6,30.38,ESE,104,12.7,12.7,52,0.00,OVC,,0.00,WeatherDisplay:10.37,2013-03-18 15:13:00,
2013-03-18 11:18:00,33.4,18.1,30.38,SSW,212,6.9,6.9,53,0.00,OVC,,0.00,WeatherDisplay:10.37,2013-03-18 15:18:00,
2013-03-18 11:23:00,33.5,17.7,30.38,East,93,13.8,13.8,52,0.00,OVC,,0.00,WeatherDisplay:10.37,2013-03-18 15:23:00,
2013-03-18 11:28:00,33.9,18.1,30.38,East,83,15.0,15.0,52,0.00,OVC,,0.00,WeatherDisplay:10.37,2013-03-18 15:28:00,
2013-03-18 11:33:00,33.8,18.0,30.38,ENE,57,12.7,12.7,52,0.00,OVC,,0.00,WeatherDisplay:10.37,2013-03-18 15:33:00,
2013-03-18 11:38:00,34.0,18.2,30.38,ESE,113,15.0,15.0,52,0.00,OVC,,0.00,WeatherDisplay:10.37,2013-03-18 15:38:00,
2013-03-18 11:43:00,34.0,18.2,30.37,ESE,122,8.1,8.1,52,0.00,OVC,,0.00,WeatherDisplay:10.37,2013-03-18 15:43:00,
2013-03-18 11:48:00,34.2,17.9,30.38,ESE,115,5.8,5.8,51,0.00,OVC,,0.00,WeatherDisplay:10.37,2013-03-18 15:48:00,
2013-03-18 11:53:00,34.7,19.3,30.37,SE,133,8.1,8.1,53,0.00,OVC,,0.00,WeatherDisplay:10.37,2013-03-18 15:53:00,
2013-03-18 11:58:00,34.4,19.0,30.37,ESE,122,11.5,11.5,53,0.00,OVC,,0.00,WeatherDisplay:10.37,2013-03-18 15:58:00,
2013-03-18 12:03:00,34.1,19.2,30.37,ENE,77,13.8,13.8,54,0.00,OVC,,0.00,WeatherDisplay:10.37,2013-03-18 16:03:00,
2013-03-18 12:08:00,34.4,19.5,30.37,ESE,107,15.0,15.0,54,0.00,OVC,,0.00,WeatherDisplay:10.37,2013-03-18 16:08:00,
2013-03-18 12:13:00,34.1,19.6,30.36,East,84,18.4,18.4,55,0.00,OVC,,0.00,WeatherDisplay:10.37,2013-03-18 16:13:00,
2013-03-18 12:18:00,34.1,20.0,30.36,East,86,13.8,13.8,56,0.00,OVC,,0.00,WeatherDisplay:10.37,2013-03-18 16:18:00,
2013-03-18 12:24:00,34.1,20.0,30.36,SE,139,13.8,13.8,56,0.00,OVC,,0.00,WeatherDisplay:10.37,2013-03-18 16:24:00,
2013-03-18 12:29:00,34.3,20.2,30.36,NNE,26,11.5,11.5,56,0.00,OVC,,0.00,WeatherDisplay:10.37,2013-03-18 16:29:00,
2013-03-18 12:34:00,34.3,20.2,30.36,East,88,17.3,17.3,56,0.00,OVC,,0.00,WeatherDisplay:10.37,2013-03-18 16:34:00,
2013-03-18 12:39:00,34.3,20.6,30.36,SE,142,11.5,11.5,57,0.00,OVC,,0.00,WeatherDisplay:10.37,2013-03-18 16:39:00,
2013-03-18 12:44:00,34.5,20.8,30.36,East,84,12.0,12.0,57,0.00,OVC,,0.00,WeatherDisplay:10.37,2013-03-18 16:44:00,
2013-03-18 12:49:00,34.9,20.4,30.35,ESE,122,9.2,9.2,55,0.00,OVC,,0.00,WeatherDisplay:10.37,2013-03-18 16:49:00,
2013-03-18 12:54:00,34.7,20.6,30.35,ENE,58,12.7,12.7,56,0.00,OVC,,0.00,WeatherDisplay:10.37,2013-03-18 16:54:00,
2013-03-18 12:59:00,34.5,20.0,30.35,East,84,16.1,16.1,55,0.00,OVC,,0.00,WeatherDisplay:10.37,2013-03-18 16:59:00,
2013-03-18 13:04:00,34.5,20.8,30.35,ESE,110,12.7,12.7,57,0.00,OVC,,0.00,WeatherDisplay:10.37,2013-03-18 17:04:00,
2013-03-18 13:09:00,34.7,20.6,30.35,ENE,74,11.5,11.5,56,0.00,OVC,,0.00,WeatherDisplay:10.37,2013-03-18 17:09:00,
2013-03-18 13:14:00,34.3,20.6,30.34,East,96,13.8,13.8,57,0.00,OVC,,0.00,WeatherDisplay:10.37,2013-03-18 17:14:00,
2013-03-18 13:19:00,34.2,20.5,30.34,East,95,18.0,18.0,57,0.00,OVC,,0.00,WeatherDisplay:10.37,2013-03-18 17:19:00,
2013-03-18 13:24:00,34.1,20.9,30.34,East,99,6.9,6.9,58,0.00,OVC,,0.00,WeatherDisplay:10.37,2013-03-18 17:24:00,
2013-03-18 13:29:00,34.1,20.9,30.33,East,81,14.0,14.0,58,0.00,OVC,,0.00,WeatherDisplay:10.37,2013-03-18 17:29:00,
2013-03-18 13:34:00,34.1,20.4,30.32,East,90,13.8,13.8,57,0.00,OVC,,0.00,WeatherDisplay:10.37,2013-03-18 17:34:00,
2013-03-18 13:39:00,34.4,20.7,30.32,ENE,72,11.5,11.5,57,0.00,OVC,,0.00,WeatherDisplay:10.37,2013-03-18 17:39:00,
2013-03-18 13:44:00,34.4,21.1,30.32,East,79,13.8,13.8,58,0.00,OVC,,0.00,WeatherDisplay:10.37,2013-03-18 17:44:00,
2013-03-18 13:49:00,34.3,20.6,30.32,SE,128,15.0,15.0,57,0.00,OVC,,0.00,WeatherDisplay:10.37,2013-03-18 17:49:00,
2013-03-18 13:54:00,34.2,20.5,30.32,ESE,104,11.5,11.5,57,0.00,OVC,,0.00,WeatherDisplay:10.37,2013-03-18 17:54:00,
2013-03-18 13:59:00,33.9,20.7,30.31,ESE,108,16.1,16.1,58,0.00,OVC,,0.00,WeatherDisplay:10.37,2013-03-18 17:59:00,
2013-03-18 14:04:00,34.2,21.4,30.30,East,89,13.8,13.8,59,0.00,OVC,,0.00,WeatherDisplay:10.37,2013-03-18 18:04:00,
2013-03-18 14:09:00,34.5,21.2,30.30,East,92,13.0,13.0,58,0.00,OVC,,0.00,WeatherDisplay:10.37,2013-03-18 18:09:00,
2013-03-18 14:14:00,34.4,21.5,30.30,SE,125,9.2,9.2,59,0.00,OVC,,0.00,WeatherDisplay:10.37,2013-03-18 18:14:00,
2013-03-18 14:19:00,34.7,21.4,30.31,ESE,107,15.0,15.0,58,0.00,OVC,,0.00,WeatherDisplay:10.37,2013-03-18 18:19:00,
2013-03-18 14:24:00,34.1,20.0,30.30,NNW,340,10.4,10.4,56,0.00,OVC,,0.00,WeatherDisplay:10.37,2013-03-18 18:24:00,
2013-03-18 14:29:00,34.1,20.9,30.30,East,99,14.0,14.0,58,0.00,OVC,,0.00,WeatherDisplay:10.37,2013-03-18 18:29:00,
2013-03-18 14:34:00,34.2,20.9,30.29,East,99,11.5,11.5,58,0.00,OVC,,0.00,WeatherDisplay:10.37,2013-03-18 18:34:00,
2013-03-18 14:39:00,34.4,21.5,30.29,SE,126,12.0,12.0,59,0.00,OVC,,0.00,WeatherDisplay:10.37,2013-03-18 18:39:00,
2013-03-18 14:44:00,34.7,21.8,30.29,East,84,14.0,14.0,59,0.00,OVC,,0.00,WeatherDisplay:10.37,2013-03-18 18:44:00,
2013-03-18 14:49:00,34.0,20.8,30.28,East,100,8.0,8.0,58,0.00,OVC,,0.00,WeatherDisplay:10.37,2013-03-18 18:49:00,
2013-03-18 14:54:00,33.9,20.3,30.27,East,82,8.1,8.1,57,0.00,OVC,,0.00,WeatherDisplay:10.37,2013-03-18 18:54:00,
2013-03-18 14:59:00,34.2,21.7,30.27,East,84,11.5,11.5,60,0.00,OVC,,0.00,WeatherDisplay:10.37,2013-03-18 18:59:00,
2013-03-18 15:04:00,34.4,21.9,30.27,ESE,107,16.1,16.1,60,0.00,OVC,,0.00,WeatherDisplay:10.37,2013-03-18 19:04:00,
2013-03-18 15:09:00,34.6,22.1,30.26,East,95,13.8,13.8,60,0.00,OVC,,0.00,WeatherDisplay:10.37,2013-03-18 19:09:00,
2013-03-18 15:14:00,34.6,22.1,30.26,ESE,120,13.8,13.8,60,0.00,OVC,,0.00,WeatherDisplay:10.37,2013-03-18 19:14:00,
2013-03-18 15:19:00,34.8,22.3,30.27,ESE,104,11.5,11.5,60,0.00,OVC,,0.00,WeatherDisplay:10.37,2013-03-18 19:19:00,
2013-03-18 15:24:00,34.3,21.8,30.26,ESE,107,15.0,15.0,60,0.00,OVC,,0.00,WeatherDisplay:10.37,2013-03-18 19:24:00,
2013-03-18 15:29:00,34.2,22.1,30.27,East,86,11.5,11.5,61,0.00,OVC,,0.00,WeatherDisplay:10.37,2013-03-18 19:29:00,
2013-03-18 15:34:00,34.5,22.4,30.26,ESE,120,10.4,10.4,61,0.00,OVC,,0.00,WeatherDisplay:10.37,2013-03-18 19:34:00,
2013-03-18 15:39:00,34.9,22.8,30.26,SE,130,15.0,15.0,61,0.00,OVC,,0.00,WeatherDisplay:10.37,2013-03-18 19:39:00,
2013-03-18 15:44:00,34.4,22.7,30.26,ENE,66,16.1,16.1,62,0.00,OVC,,0.00,WeatherDisplay:10.37,2013-03-18 19:44:00,
2013-03-18 15:49:00,34.4,23.1,30.26,SSW,202,9.2,9.2,63,0.00,OVC,,0.00,WeatherDisplay:10.37,2013-03-18 19:49:00,
2013-03-18 15:55:00,34.5,22.8,30.26,ESE,118,13.0,18.0,62,0.00,OVC,,0.00,WeatherDisplay:10.37,2013-03-18 19:55:00,
2013-03-18 15:59:00,34.2,22.5,30.26,ESE,107,21.0,21.0,62,0.00,OVC,,0.00,WeatherDisplay:10.37,2013-03-18 19:59:00,
2013-03-18 16:04:00,34.1,22.8,30.25,East,96,16.1,16.1,63,0.00,OVC,,0.00,WeatherDisplay:10.37,2013-03-18 20:04:00,
2013-03-18 16:10:00,33.9,22.6,30.25,ESE,110,18.4,18.4,63,0.00,OVC,,0.00,WeatherDisplay:10.37,2013-03-18 20:10:00,
2013-03-18 16:15:00,33.8,22.5,30.24,East,99,12.0,17.0,63,0.00,OVC,,0.00,WeatherDisplay:10.37,2013-03-18 20:15:00,
2013-03-18 16:20:00,33.8,22.9,30.24,East,96,14.0,23.0,64,0.00,OVC,,0.00,WeatherDisplay:10.37,2013-03-18 20:20:00,
2013-03-18 16:25:00,33.7,22.8,30.24,East,96,17.0,23.0,64,0.00,OVC,,0.00,WeatherDisplay:10.37,2013-03-18 20:25:00,
2013-03-18 16:30:00,33.5,23.0,30.24,East,97,13.0,20.0,65,0.00,OVC,,0.00,WeatherDisplay:10.37,2013-03-18 20:30:00,
2013-03-18 16:35:00,33.6,24.2,30.24,ESE,102,10.0,18.0,68,0.00,OVC,,0.00,WeatherDisplay:10.37,2013-03-18 20:35:00,
2013-03-18 16:40:00,33.5,24.1,30.24,East,91,12.0,20.0,68,0.00,OVC,,0.00,WeatherDisplay:10.37,2013-03-18 20:40:00,
2013-03-18 16:45:00,33.2,24.5,30.24,ENE,76,10.0,20.0,70,0.00,OVC,,0.00,WeatherDisplay:10.37,2013-03-18 20:45:00,
2013-03-18 16:49:00,33.2,25.5,30.24,ENE,73,11.5,11.5,73,0.00,OVC,,0.00,WeatherDisplay:10.37,2013-03-18 20:49:00,
2013-03-18 16:54:00,32.7,25.6,30.23,ESE,105,16.0,16.0,75,0.00,OVC,,0.00,WeatherDisplay:10.37,2013-03-18 20:54:00,
2013-03-18 16:59:00,32.3,26.2,30.23,East,89,11.5,11.5,78,0.00,OVC,,0.00,WeatherDisplay:10.37,2013-03-18 20:59:00,
2013-03-18 17:05:00,32.1,26.3,30.23,ESE,105,14.0,14.0,79,0.00,-SN,,0.00,WeatherDisplay:10.37,2013-03-18 21:05:00,
2013-03-18 17:10:00,31.8,26.6,30.22,East,86,19.6,19.6,81,0.00,-SN,,0.00,WeatherDisplay:10.37,2013-03-18 21:10:00,
2013-03-18 17:15:00,31.5,26.6,30.22,East,101,8.0,18.0,82,0.00,-SN,,0.00,WeatherDisplay:10.37,2013-03-18 21:15:00,
2013-03-18 17:20:00,31.5,26.9,30.22,East,98,12.0,14.0,83,0.00,-SN,,0.00,WeatherDisplay:10.37,2013-03-18 21:20:00,
2013-03-18 17:25:00,31.3,27.3,30.23,East,93,8.0,16.0,85,0.00,-SN,,0.00,WeatherDisplay:10.37,2013-03-18 21:25:00,
2013-03-18 17:30:00,31.2,27.3,30.23,East,91,10.0,18.0,85,0.00,-SN,,0.00,WeatherDisplay:10.37,2013-03-18 21:30:00,
2013-03-18 17:35:00,31.0,27.0,30.23,East,94,10.0,18.0,85,0.00,-SN,,0.00,WeatherDisplay:10.37,2013-03-18 21:35:00,
2013-03-18 17:40:00,31.1,27.7,30.23,East,87,6.0,14.0,87,0.00,-SN,,0.00,WeatherDisplay:10.37,2013-03-18 21:40:00,
2013-03-18 17:45:00,31.2,27.5,30.23,ESE,103,12.0,18.0,86,0.00,-SN,,0.00,WeatherDisplay:10.37,2013-03-18 21:45:00,
2013-03-18 17:50:00,31.2,27.5,30.23,ENE,78,13.0,13.0,86,0.00,-SN,,0.00,WeatherDisplay:10.37,2013-03-18 21:50:00,
2013-03-18 17:55:00,31.3,27.6,30.23,East,94,15.0,15.0,86,0.00,-SN,,0.00,WeatherDisplay:10.37,2013-03-18 21:55:00,
2013-03-18 18:00:00,31.1,27.4,30.22,ESE,105,16.1,16.1,86,0.00,-SN,,0.00,WeatherDisplay:10.37,2013-03-18 22:00:00,
2013-03-18 18:05:00,31.3,27.9,30.21,ESE,113,6.9,6.9,87,0.00,-RA,,0.00,WeatherDisplay:10.37,2013-03-18 22:05:00,
2013-03-18 18:10:00,31.2,27.8,30.21,ENE,63,13.8,13.8,87,0.00,-RA,,0.00,WeatherDisplay:10.37,2013-03-18 22:10:00,
2013-03-18 18:15:00,31.0,27.9,30.22,East,87,11.5,11.5,88,0.00,-RA,,0.00,WeatherDisplay:10.37,2013-03-18 22:15:00,
2013-03-18 18:20:00,30.9,27.8,30.22,East,95,19.6,19.6,88,0.00,-RA,,0.00,WeatherDisplay:10.37,2013-03-18 22:20:00,
2013-03-18 18:25:00,31.0,27.9,30.21,NE,53,9.2,9.2,88,0.00,-RA,,0.00,WeatherDisplay:10.37,2013-03-18 22:25:00,
2013-03-18 18:30:00,31.1,28.2,30.21,ESE,113,15.0,15.0,89,0.00,-RA,,0.00,WeatherDisplay:10.37,2013-03-18 22:30:00,
2013-03-18 18:35:00,31.0,28.1,30.20,East,87,13.8,13.8,89,0.00,-RA,,0.00,WeatherDisplay:10.37,2013-03-18 22:35:00,
2013-03-18 18:40:00,31.1,28.8,30.17,East,92,18.4,18.4,91,0.00,OVC,,0.00,WeatherDisplay:10.37,2013-03-18 22:40:00,
2013-03-18 18:45:00,30.9,28.6,30.15,ESE,115,23.0,23.0,91,0.00,-PL,,0.00,WeatherDisplay:10.37,2013-03-18 22:45:00,
2013-03-18 18:50:00,30.8,28.5,30.15,ESE,104,17.3,17.3,91,0.00,-PL,,0.00,WeatherDisplay:10.37,2013-03-18 22:50:00,
2013-03-18 18:55:00,30.8,28.8,30.16,East,82,17.3,17.3,92,0.00,-PL,,0.00,WeatherDisplay:10.37,2013-03-18 22:55:00,
2013-03-18 19:00:00,30.8,28.8,30.16,ENE,65,18.4,18.4,92,0.00,-PL,,0.00,WeatherDisplay:10.37,2013-03-18 23:00:00,
2013-03-18 19:05:00,30.7,28.7,30.16,East,82,19.6,19.6,92,0.00,-PL,,0.00,WeatherDisplay:10.37,2013-03-18 23:05:00,
2013-03-18 19:10:00,30.7,28.9,30.17,ESE,120,17.3,17.3,93,0.00,-PL,,0.00,WeatherDisplay:10.37,2013-03-18 23:10:00,
2013-03-18 19:15:00,30.8,28.8,30.17,ENE,77,19.6,19.6,92,0.00,-PL,,0.00,WeatherDisplay:10.37,2013-03-18 23:15:00,
2013-03-18 19:20:00,30.8,28.8,30.17,ESE,119,20.7,20.7,92,0.00,-PL,,0.00,WeatherDisplay:10.37,2013-03-18 23:20:00,
2013-03-18 19:25:00,30.8,28.8,30.17,East,97,20.7,20.7,92,0.00,-SN,,0.00,WeatherDisplay:10.37,2013-03-18 23:25:00,
2013-03-18 19:30:00,30.8,29.0,30.16,East,96,24.2,24.2,93,0.00,-SN,,0.00,WeatherDisplay:10.37,2013-03-18 23:30:00,
2013-03-18 19:35:00,30.8,29.0,30.16,ENE,77,18.0,18.0,93,0.00,-SN,,0.00,WeatherDisplay:10.37,2013-03-18 23:35:00,
2013-03-18 19:40:00,30.7,28.9,30.16,ESE,119,18.4,18.4,93,0.00,-SN,,0.00,WeatherDisplay:10.37,2013-03-18 23:40:00,
2013-03-18 19:45:00,30.6,28.8,30.15,East,101,23.0,23.0,93,0.00,-SN,,0.00,WeatherDisplay:10.37,2013-03-18 23:45:00,
2013-03-18 19:51:00,30.7,29.2,30.15,East,99,22.0,22.0,94,0.00,-SN,,0.00,WeatherDisplay:10.37,2013-03-18 23:51:00,
2013-03-18 19:56:00,30.7,29.2,30.15,ESE,108,20.7,20.7,94,0.00,-SN,,0.00,WeatherDisplay:10.37,2013-03-18 23:56:00,
2013-03-18 20:02:00,30.7,29.2,30.14,NE,56,17.3,17.3,94,0.00,OVC,,0.00,WeatherDisplay:10.37,2013-03-19 00:02:00,
2013-03-18 20:07:00,30.8,29.3,30.15,ESE,104,17.3,17.3,94,0.00,OVC,,0.00,WeatherDisplay:10.37,2013-03-19 00:07:00,
2013-03-18 20:12:00,30.8,29.3,30.14,East,81,18.4,18.4,94,0.00,OVC,,0.00,WeatherDisplay:10.37,2013-03-19 00:12:00,
2013-03-18 20:17:00,30.7,29.4,30.14,ENE,77,11.5,11.5,95,0.00,OVC,,0.00,WeatherDisplay:10.37,2013-03-19 00:17:00,
2013-03-18 20:22:00,30.7,29.4,30.14,East,83,17.3,17.3,95,0.00,OVC,,0.00,WeatherDisplay:10.37,2013-03-19 00:22:00,
2013-03-18 20:27:00,30.8,29.5,30.15,NE,44,11.5,11.5,95,0.00,OVC,,0.00,WeatherDisplay:10.37,2013-03-19 00:27:00,
2013-03-18 20:32:00,30.9,29.6,30.14,East,84,12.7,12.7,95,0.00,OVC,,0.00,WeatherDisplay:10.37,2013-03-19 00:32:00,
2013-03-18 20:37:00,30.9,29.6,30.14,East,96,11.5,11.5,95,0.00,OVC,,0.00,WeatherDisplay:10.37,2013-03-19 00:37:00,
2013-03-18 20:42:00,30.9,29.6,30.13,East,98,13.8,13.8,95,0.00,OVC,,0.00,WeatherDisplay:10.37,2013-03-19 00:42:00,
2013-03-18 20:48:00,30.9,29.6,30.13,NNW,340,13.8,13.8,95,0.00,OVC,,0.00,WeatherDisplay:10.37,2013-03-19 00:48:00,
2013-03-18 20:53:00,30.9,29.6,30.13,ENE,73,18.4,18.4,95,0.00,OVC,,0.00,WeatherDisplay:10.37,2013-03-19 00:53:00,
2013-03-18 20:58:00,30.8,29.5,30.12,East,79,18.4,18.4,95,0.00,OVC,,0.00,WeatherDisplay:10.37,2013-03-19 00:58:00,
2013-03-18 21:03:00,30.8,29.5,30.12,East,88,14.0,14.0,95,0.00,-SN,,0.00,WeatherDisplay:10.37,2013-03-19 01:03:00,
2013-03-18 21:08:00,30.8,29.5,30.12,East,98,15.0,15.0,95,0.00,-SN,,0.00,WeatherDisplay:10.37,2013-03-19 01:08:00,
2013-03-18 21:13:00,30.7,29.4,30.11,ENE,61,15.0,15.0,95,0.00,-SN,,0.00,WeatherDisplay:10.37,2013-03-19 01:13:00,
2013-03-18 21:18:00,30.7,29.4,30.11,ENE,71,6.9,6.9,95,0.00,-SN,,0.00,WeatherDisplay:10.37,2013-03-19 01:18:00,
2013-03-18 21:23:00,30.8,29.5,30.11,ENE,65,9.0,9.0,95,0.00,-SN,,0.00,WeatherDisplay:10.37,2013-03-19 01:23:00,
2013-03-18 21:29:00,30.7,29.7,30.10,NE,51,13.8,13.8,96,0.00,-SN,,0.00,WeatherDisplay:10.37,2013-03-19 01:29:00,
2013-03-18 21:34:00,30.7,29.7,30.10,ENE,71,11.5,11.5,96,0.00,-SN,,0.00,WeatherDisplay:10.37,2013-03-19 01:34:00,
2013-03-18 21:39:00,30.7,29.7,30.10,NE,49,10.0,10.0,96,0.00,-SN,,0.00,WeatherDisplay:10.37,2013-03-19 01:39:00,
2013-03-18 21:44:00,30.6,29.6,30.10,East,86,11.0,11.0,96,0.00,-SN,,0.00,WeatherDisplay:10.37,2013-03-19 01:44:00,
2013-03-18 21:49:00,30.6,29.6,30.10,ENE,58,12.7,12.7,96,0.00,-SN,,0.00,WeatherDisplay:10.37,2013-03-19 01:49:00,
2013-03-18 21:54:00,30.7,29.7,30.09,ENE,68,8.1,8.1,96,0.00,-SN,,0.00,WeatherDisplay:10.37,2013-03-19 01:54:00,
2013-03-18 21:59:00,30.7,29.7,30.09,ENE,67,12.7,12.7,96,0.00,-SN,,0.00,WeatherDisplay:10.37,2013-03-19 01:59:00,
2013-03-18 22:04:00,30.7,29.7,30.09,NE,55,9.2,9.2,96,0.00,-SN,,0.00,WeatherDisplay:10.37,2013-03-19 02:04:00,
2013-03-18 22:09:00,30.8,29.8,30.10,ENE,64,10.4,10.4,96,0.00,-SN,,0.00,WeatherDisplay:10.37,2013-03-19 02:09:00,
2013-03-18 22:14:00,30.8,29.8,30.09,ENE,67,9.2,9.2,96,0.00,-SN,,0.00,WeatherDisplay:10.37,2013-03-19 02:14:00,
2013-03-18 22:19:00,30.9,29.9,30.09,East,99,11.5,11.5,96,0.00,-SN,,0.00,WeatherDisplay:10.37,2013-03-19 02:19:00,
2013-03-18 22:24:00,31.0,30.0,30.09,East,89,9.2,9.2,96,0.00,-SN,,0.00,WeatherDisplay:10.37,2013-03-19 02:24:00,
2013-03-18 22:29:00,31.1,30.1,30.09,ENE,60,12.0,12.0,96,0.00,-SN,,0.00,WeatherDisplay:10.37,2013-03-19 02:29:00,
2013-03-18 22:34:00,31.2,30.2,30.08,ENE,77,11.5,11.5,96,0.00,-SN,,0.00,WeatherDisplay:10.37,2013-03-19 02:34:00,
2013-03-18 22:39:00,31.3,30.3,30.08,NE,43,8.1,8.1,96,0.00,-RA,,0.00,WeatherDisplay:10.37,2013-03-19 02:39:00,
2013-03-18 22:44:00,31.3,30.3,30.08,NE,56,7.0,7.0,96,0.00,-RA,,0.00,WeatherDisplay:10.37,2013-03-19 02:44:00,
2013-03-18 22:50:00,31.4,30.4,30.08,ENE,64,3.0,8.0,96,0.00,-RA,,0.00,WeatherDisplay:10.37,2013-03-19 02:50:00,
2013-03-18 22:55:00,31.5,30.5,30.08,ENE,66,6.0,10.0,96,0.00,-RA,,0.00,WeatherDisplay:10.37,2013-03-19 02:55:00,
2013-03-18 23:00:00,31.5,30.5,30.08,ENE,71,6.0,12.0,96,0.00,-RA,,0.00,WeatherDisplay:10.37,2013-03-19 03:00:00,
2013-03-18 23:05:00,31.6,30.6,30.07,ENE,73,6.0,12.0,96,0.00,-RA,,0.00,WeatherDisplay:10.37,2013-03-19 03:05:00,
2013-03-18 23:10:00,31.7,30.7,30.06,ENE,66,8.0,12.0,96,0.00,-RA,,0.00,WeatherDisplay:10.37,2013-03-19 03:10:00,
2013-03-18 23:15:00,31.8,30.8,30.06,ENE,74,6.0,13.0,96,0.00,-RA,,0.00,WeatherDisplay:10.37,2013-03-19 03:15:00,
2013-03-18 23:20:00,31.9,30.9,30.06,ENE,74,5.0,8.0,96,0.00,-RA,,0.00,WeatherDisplay:10.37,2013-03-19 03:20:00,
2013-03-18 23:25:00,32.0,31.0,30.06,ENE,68,6.0,12.0,96,0.00,-RA,,0.00,WeatherDisplay:10.37,2013-03-19 03:25:00,
2013-03-18 23:30:00,32.1,31.1,30.06,NNE,29,11.5,11.5,96,0.00,-RA,,0.00,WeatherDisplay:10.37,2013-03-19 03:30:00,
2013-03-18 23:35:00,32.3,31.3,30.05,ENE,68,11.5,11.5,96,0.00,-RA,,0.00,WeatherDisplay:10.37,2013-03-19 03:35:00,
2013-03-18 23:40:00,32.4,31.4,30.04,East,79,11.5,11.5,96,0.00,-RA,,0.00,WeatherDisplay:10.37,2013-03-19 03:40:00,
2013-03-18 23:45:00,32.5,31.5,30.03,East,85,11.5,11.5,96,0.00,-RA,,0.00,WeatherDisplay:10.37,2013-03-19 03:45:00,
2013-03-18 23:50:00,32.6,31.6,30.03,ENE,76,9.0,15.0,96,0.00,-RA,,0.00,WeatherDisplay:10.37,2013-03-19 03:50:00,
2013-03-18 23:55:00,32.7,31.7,30.03,ENE,70,7.0,14.0,96,0.00,-RA,,0.00,WeatherDisplay:10.37,2013-03-19 03:55:00,